Latest Weather Observations for Yarram Airport

IDV60801

Issued at 8:02 am EST Saturday 30 May 2015 (issued every 30 minutes, with the page automatically refreshed every 10 minutes)

About weather observations | Map of weather stations | Latest weather observations for VIC | Other Formats
Station Details ID: 085151 Name: YARRAM AIRPORT Lat: -38.56 Lon: 146.75 Height: 17.9 m
Data from the previous 72 hours. | See also: Recent months at Yarram Airport
Date/Time
EST
Temp
°C
App
Temp
°C
Dew
Point
Rel
Hum
%
Delta-T
°C
Wind Press
QNH
hPa
Press
MSL
hPa
Rain
since 9 am
mm
Dir
 
Spd
km/h
Gust
km/h
Spd
kts
Gust
kts
30/08:00am 11.3 6.5 5.8 69 2.5 NW 20 26 11 14 1017.9 1017.9 0.0
30/07:30am 11.4 6.6 5.7 68 2.6 WNW 20 30 11 16 1017.9 1017.9 0.0
30/07:00am 11.7 7.2 6.0 68 2.7 NW 19 26 10 14 1018.3 1018.3 0.0
30/06:30am 11.3 6.6 6.0 70 2.5 NW 20 32 11 17 1018.1 1018.1 0.0
30/06:00am 10.6 6.0 6.4 75 2.0 NW 20 28 11 15 1018.0 1018.0 0.0
30/05:30am 10.9 6.4 6.8 76 1.9 NW 20 30 11 16 1018.3 1018.3 0.0
30/05:00am 11.5 5.9 7.0 74 2.1 NW 26 41 14 22 1018.3 1018.3 0.0
30/04:30am 11.1 6.1 6.6 74 2.1 NW 22 33 12 18 1018.5 1018.5 0.0
30/04:00am 11.3 6.4 6.8 74 2.1 NW 22 35 12 19 1018.7 1018.7 0.0
30/03:30am 8.0 5.1 6.5 90 0.7 NNW 11 17 6 9 1018.8 1018.8 0.0
30/03:00am 6.5 3.8 3.5 81 1.3 NNW 7 13 4 7 1019.1 1019.1 0.0
30/02:30am 7.8 4.9 4.6 80 1.4 NNW 9 11 5 6 1019.5 1019.5 0.0
30/02:00am 5.8 2.2 3.0 82 1.2 N 11 13 6 7 1019.6 1019.6 0.0
30/01:30am 7.1 3.5 3.0 75 1.7 NNW 11 13 6 7 1019.8 1019.8 0.0
30/01:00am 9.1 5.4 4.7 74 1.9 N 13 17 7 9 1020.1 1020.2 0.0
30/12:30am 8.5 4.9 4.9 78 1.6 NNW 13 17 7 9 1020.3 1020.4 0.0
30/12:00am 9.3 6.6 5.5 77 1.7 NW 9 11 5 6 1020.6 1020.7 0.0
 
Date/Time
EST
Temp
°C
App
Temp
°C
Dew
Point
Rel
Hum
%
Delta-T
°C
Wind Press
QNH
hPa
Press
MSL
hPa
Rain
since 9 am
mm
Dir
 
Spd
km/h
Gust
km/h
Spd
kts
Gust
kts
29/11:30pm 9.6 6.1 5.6 76 1.8 N 13 17 7 9 1020.7 1020.8 0.0
29/11:00pm 9.6 6.1 5.4 75 1.9 NW 13 15 7 8 1020.8 1020.9 0.0
29/10:30pm 8.3 6.2 5.8 84 1.1 NNW 6 17 3 9 1020.8 1020.9 0.0
29/10:00pm 7.8 5.6 5.3 84 1.1 SSW 6 7 3 4 1020.9 1021.0 0.0
29/09:30pm 10.8 7.4 5.8 71 2.3 WNW 13 20 7 11 1020.9 1021.0 0.0
29/09:00pm 9.1 7.0 6.7 85 1.1 NNW 7 15 4 8 1020.9 1021.0 0.0
29/08:30pm 6.7 4.4 4.9 88 0.8 N 6 7 3 4 1021.0 1021.1 0.0
29/08:00pm 8.1 5.5 6.1 87 0.9 NW 9 11 5 6 1021.0 1021.1 0.0
29/07:30pm 7.7 5.1 6.3 91 0.6 NNW 9 11 5 6 1021.0 1021.1 0.0
29/07:00pm 6.8 3.8 4.3 84 1.1 NNE 9 11 5 6 1020.9 1021.0 0.0
29/06:30pm 8.7 6.0 5.4 80 1.5 NNW 9 11 5 6 1020.7 1020.8 0.0
29/06:00pm 9.4 6.3 5.6 77 1.7 NW 11 13 6 7 1020.5 1020.6 0.0
29/05:30pm 10.9 7.2 6.3 73 2.2 NW 15 19 8 10 1020.5 1020.6 0.0
29/05:00pm 11.2 7.2 6.7 74 2.1 NW 17 22 9 12 1020.1 1020.2 0.0
29/04:30pm 12.2 9.1 7.1 71 2.5 WNW 13 19 7 10 1020.0 1020.0 0.0
29/04:00pm 13.1 8.3 7.3 68 2.8 WNW 22 28 12 15 1019.8 1019.8 0.0
29/03:30pm 13.1 7.9 7.1 67 2.9 W 24 35 13 19 1019.9 1019.9 0.0
29/03:00pm 13.5 7.2 7.3 66 3.0 W 30 43 16 23 1019.7 1019.7 0.0
29/02:30pm 13.5 7.4 6.4 62 3.4 NW 28 37 15 20 1019.1 1019.1 0.0
29/02:00pm 14.1 8.2 7.6 65 3.2 WNW 28 35 15 19 1019.1 1019.1 0.0
29/01:30pm 13.3 6.5 7.1 66 3.0 WNW 32 44 17 24 1019.3 1019.3 0.0
29/01:09pm 13.7 6.8 6.6 62 3.4 WNW 32 52 17 28 1019.1 1019.1 0.0
29/01:00pm 14.2 8.2 7.0 62 3.5 WNW 28 39 15 21 1019.3 1019.3 0.0
29/12:30pm 13.3 6.3 6.2 62 3.4 WNW 32 44 17 24 1019.5 1019.5 0.0
29/12:00pm 13.5 7.1 6.8 64 3.2 WNW 30 43 16 23 1020.0 1020.0 0.0
29/11:30am 13.2 7.2 7.0 66 3.0 W 28 43 15 23 1020.2 1020.3 0.0
29/11:00am 12.9 7.2 6.9 67 2.9 W 26 37 14 20 1020.4 1020.5 0.0
29/10:30am 12.6 7.0 7.1 69 2.7 WNW 26 37 14 20 1020.5 1020.6 0.0
29/10:00am 12.8 7.2 7.0 68 2.8 WNW 26 33 14 18 1020.3 1020.4 0.0
29/09:30am 12.3 7.0 6.8 69 2.6 WNW 24 35 13 19 1020.0 1020.0 0.0
29/09:00am 12.0 7.5 6.9 71 2.4 WNW 20 28 11 15 1019.8 1019.8 0.2
29/08:30am 11.1 7.1 6.5 73 2.2 WNW 17 24 9 13 1019.5 1019.5 0.2
29/08:00am 10.2 5.6 6.4 77 1.8 WNW 20 24 11 13 1019.2 1019.2 0.2
29/07:30am 10.3 5.7 6.5 77 1.8 WNW 20 28 11 15 1018.8 1018.8 0.2
29/07:00am 10.1 6.4 6.4 78 1.7 NW 15 24 8 13 1018.6 1018.6 0.2
29/06:30am 10.3 6.9 6.1 75 1.9 WNW 13 20 7 11 1018.3 1018.3 0.2
29/06:00am 10.6 5.5 6.2 74 2.0 WNW 22 35 12 19 1017.4 1017.4 0.2
29/05:30am 10.3 4.5 6.1 75 1.9 WNW 26 35 14 19 1017.0 1017.0 0.2
29/05:00am 10.3 5.3 6.3 76 1.9 W 22 32 12 17 1016.8 1016.8 0.2
29/04:30am 10.9 4.4 6.6 75 2.0 W 30 43 16 23 1016.6 1016.6 0.2
29/04:00am 11.2 4.4 7.1 76 2.0 W 32 44 17 24 1016.2 1016.2 0.2
29/03:33am 11.3 5.0 7.6 78 1.8 W 30 48 16 26 1015.9 1015.9 0.2
29/03:30am 11.3 4.7 7.8 79 1.7 W 32 44 17 24 1016.0 1016.0 0.2
29/03:00am 11.5 5.0 8.2 80 1.6 WNW 32 41 17 22 1015.6 1015.6 0.2
29/02:30am 11.5 6.1 8.2 80 1.6 WNW 26 37 14 20 1015.7 1015.7 0.2
29/02:00am 11.6 7.0 8.3 80 1.6 WNW 22 33 12 18 1015.5 1015.5 0.2
29/01:30am 12.0 6.7 8.3 78 1.8 WNW 26 39 14 21 1015.3 1015.3 0.2
29/01:00am 12.4 7.7 9.1 80 1.7 WNW 24 41 13 22 1015.3 1015.3 0.2
29/12:30am 12.6 8.9 10.0 84 1.3 WNW 20 30 11 16 1015.3 1015.3 0.2
29/12:00am 12.2 9.4 10.1 87 1.1 WNW 15 19 8 10 1015.2 1015.2 0.2
 
Date/Time
EST
Temp
°C
App
Temp
°C
Dew
Point
Rel
Hum
%
Delta-T
°C
Wind Press
QNH
hPa
Press
MSL
hPa
Rain
since 9 am
mm
Dir
 
Spd
km/h
Gust
km/h
Spd
kts
Gust
kts
28/11:30pm 12.7 9.2 10.2 85 1.3 W 19 24 10 13 1014.9 1014.9 0.2
28/11:00pm 12.5 9.3 11.1 91 0.7 WNW 19 26 10 14 1014.8 1014.8 0.2
28/10:30pm 12.7 11.0 12.4 98 0.2 W 13 20 7 11 1015.1 1015.1 0.2
28/10:00pm 12.7 11.3 12.2 97 0.3 WSW 11 15 6 8 1015.0 1015.0 0.2
28/09:30pm 13.2 8.6 12.3 94 0.5 WSW 28 37 15 20 1014.7 1014.7 0.0
28/09:00pm 13.6 8.1 11.7 88 1.0 SW 32 43 17 23 1014.4 1014.4 0.0
28/08:30pm 14.6 9.7 11.4 81 1.7 SW 28 41 15 22 1013.9 1013.9 0.0
28/08:00pm 16.9 11.6 8.3 57 4.4 NNW 26 37 14 20 1012.7 1012.7 0.0
28/07:30pm 15.7 10.5 8.7 63 3.6 N 26 32 14 17 1012.6 1012.6 0.0
28/07:00pm 16.6 10.3 8.8 60 4.0 N 32 39 17 21 1012.6 1012.6 0.0
28/06:30pm 16.2 11.1 9.2 63 3.6 N 26 32 14 17 1012.5 1012.5 0.0
28/06:00pm 15.7 11.1 8.2 61 3.8 NNW 22 33 12 18 1012.7 1012.7 0.0
28/05:30pm 17.3 13.1 8.2 55 4.6 NNW 20 30 11 16 1012.5 1012.5 0.0
28/05:00pm 17.5 13.3 8.4 55 4.7 NNW 20 26 11 14 1012.4 1012.4 0.0
28/04:30pm 18.4 14.4 8.9 54 4.9 NNW 20 30 11 16 1012.5 1012.5 0.0
28/04:00pm 18.9 14.3 9.7 55 4.9 NW 24 32 13 17 1012.6 1012.6 0.0
28/03:30pm 19.8 14.2 10.0 53 5.3 NW 30 41 16 22 1012.7 1012.7 0.0
28/03:00pm 20.0 15.1 9.9 52 5.4 NNW 26 39 14 21 1012.4 1012.4 0.0
28/02:40pm 20.1 14.6 9.1 49 5.8 NNW 28 46 15 25 1012.7 1012.7 0.0
28/02:30pm 20.0 13.5 9.0 49 5.8 NNW 33 46 18 25 1012.7 1012.7 0.0
28/02:00pm 20.1 14.8 9.9 52 5.5 NNW 28 44 15 24 1012.9 1012.9 0.0
28/01:30pm 19.9 13.2 9.5 51 5.5 NNW 35 54 19 29 1013.4 1013.4 0.0
28/01:06pm 20.1 13.9 9.4 50 5.7 NNW 32 50 17 27 1013.7 1013.7 0.0
28/01:00pm 20.2 14.4 9.5 50 5.7 NNW 30 39 16 21 1013.9 1013.9 0.0
28/12:30pm 19.8 14.4 9.4 51 5.5 NNW 28 37 15 20 1014.4 1014.4 0.0
28/12:00pm 19.9 14.5 9.5 51 5.5 N 28 41 15 22 1014.8 1014.8 0.0
28/11:30am 20.1 15.6 10.2 53 5.3 NNW 24 35 13 19 1015.4 1015.4 0.0
28/11:00am 19.4 15.2 9.6 53 5.2 NNW 22 30 12 16 1016.0 1016.0 0.0
28/10:30am 18.6 14.3 9.4 55 4.8 NNW 22 30 12 16 1016.3 1016.3 0.0
28/10:00am 17.4 14.9 9.8 61 4.0 NW 13 20 7 11 1016.4 1016.4 0.0
28/09:30am 16.7 14.4 10.5 67 3.3 N 13 22 7 12 1016.4 1016.4 0.0
28/09:00am 15.0 13.6 10.8 76 2.2 N 9 11 5 6 1016.7 1016.7 0.0
28/08:30am 11.8 11.2 9.0 83 1.4 NNW 2 7 1 4 1016.9 1016.9 0.0
28/08:00am 10.5 8.6 9.1 91 0.7 N 9 11 5 6 1016.9 1016.9 0.0
28/07:30am 7.1 4.9 5.1 87 0.9 NW 6 7 3 4 1016.8 1016.8 0.0
28/07:00am 8.6 6.2 6.9 89 0.8 NNE 9 11 5 6 1016.8 1016.8 0.0
28/06:30am 9.4 6.5 8.2 92 0.6 N 13 17 7 9 1016.8 1016.8 0.0
28/06:00am 9.4 7.3 5.9 79 1.6 N 6 7 3 4 1016.8 1016.8 0.0
28/05:30am 13.1 10.8 9.0 76 2.1 NNW 11 13 6 7 1016.6 1016.6 0.0
28/05:00am 12.6 9.5 8.7 77 1.9 N 15 19 8 10 1016.4 1016.4 0.0
28/04:30am 13.4 9.7 9.3 76 2.1 N 19 22 10 12 1016.3 1016.3 0.0
28/04:00am 13.3 10.0 9.4 77 2.0 N 17 20 9 11 1016.4 1016.4 0.0
28/03:30am 14.4 10.1 9.2 71 2.7 N 22 26 12 14 1016.6 1016.6 0.0
28/03:00am 14.0 10.1 9.6 75 2.3 N 20 26 11 14 1017.1 1017.1 0.0
28/02:30am 14.5 10.6 9.5 72 2.6 NNW 20 26 11 14 1017.2 1017.2 0.0
28/02:00am 12.0 10.4 10.1 88 1.0 NW 9 13 5 7 1017.4 1017.4 0.0
28/01:30am 10.8 7.7 8.7 87 1.0 ENE 15 19 8 10 1017.2 1017.2 0.0
28/01:00am 11.4 8.9 8.4 82 1.5 ENE 11 15 6 8 1017.4 1017.4 0.0
28/12:30am 11.8 9.8 8.8 82 1.5 E 9 11 5 6 1017.6 1017.6 0.0
28/12:00am 10.9 8.9 8.8 87 1.0 NNE 9 11 5 6 1017.8 1017.8 0.0
 
Date/Time
EST
Temp
°C
App
Temp
°C
Dew
Point
Rel
Hum
%
Delta-T
°C
Wind Press
QNH
hPa
Press
MSL
hPa
Rain
since 9 am
mm
Dir
 
Spd
km/h
Gust
km/h
Spd
kts
Gust
kts
27/11:30pm 10.3 8.1 7.9 85 1.2 NNE 9 11 5 6 1018.0 1018.0 0.0
27/11:00pm 10.0 6.9 7.4 84 1.2 N 13 15 7 8 1018.1 1018.1 0.0
27/10:30pm 12.2 9.0 8.3 77 1.9 NW 15 19 8 10 1018.1 1018.1 0.0
27/10:00pm 12.8 8.9 8.7 76 2.0 NW 19 20 10 11 1018.3 1018.3 0.0
27/09:30pm 12.2 9.1 8.9 80 1.7 NNW 15 17 8 9 1018.4 1018.4 0.0
27/09:00pm 12.4 9.0 9.2 81 1.6 NNW 17 22 9 12 1018.5 1018.5 0.0
27/08:30pm 13.1 9.3 9.7 80 1.7 N 20 24 11 13 1018.5 1018.5 0.0
27/08:00pm 12.9 9.3 9.7 81 1.6 NNW 19 22 10 12 1018.5 1018.5 0.0
27/07:30pm 14.0 10.3 9.6 75 2.3 N 19 22 10 12 1018.3 1018.3 0.0
27/07:00pm 14.0 10.4 9.8 76 2.2 N 19 20 10 11 1018.2 1018.2 0.0
27/06:30pm 12.7 9.4 9.5 81 1.6 N 17 19 9 10 1018.1 1018.1 0.0
27/06:00pm 13.6 11.2 10.2 80 1.8 NNW 13 17 7 9 1018.0 1018.0 0.0
27/05:30pm 13.4 12.2 9.5 77 2.0 NNE 6 9 3 5 1017.8 1017.8 0.0
27/05:00pm 15.0 12.5 9.6 70 2.8 N 13 20 7 11 1017.6 1017.6 0.0
27/04:30pm 17.3 15.0 10.4 64 3.7 NNW 13 17 7 9 1017.6 1017.6 0.0
27/04:00pm 18.4 17.2 11.5 64 3.8 NNW 9 13 5 7 1017.7 1017.7 0.0
27/03:30pm 18.2 16.3 11.7 66 3.6 NW 13 19 7 10 1017.6 1017.6 0.0
27/03:00pm 17.5 15.0 10.9 65 3.5 NW 15 20 8 11 1017.7 1017.7 0.0
27/02:30pm 17.6 14.6 10.5 63 3.8 NW 17 24 9 13 1017.6 1017.6 0.0
27/02:00pm 18.4 15.4 10.5 60 4.2 NW 17 20 9 11 1017.8 1017.8 0.0
27/01:30pm 18.3 16.9 10.9 62 4.0 NW 9 20 5 11 1018.1 1018.1 0.0
27/01:00pm 17.8 16.8 11.1 65 3.6 NNW 7 11 4 6 1018.4 1018.4 0.0
27/12:30pm 18.2 16.8 11.0 63 3.9 N 9 11 5 6 1018.7 1018.7 0.0
27/12:00pm 17.5 16.4 12.0 70 3.0 E 9 11 5 6 1019.0 1019.0 0.0
27/11:30am 15.4 13.7 10.0 70 2.8 ENE 9 13 5 7 1019.5 1019.5 0.0
27/11:00am 14.8 12.7 9.8 72 2.6 NE 11 15 6 8 1020.0 1020.0 0.0
27/10:30am 15.2 13.4 10.8 75 2.3 NE 11 15 6 8 1020.4 1020.5 0.0
27/10:00am 13.3 11.1 9.5 78 1.9 NNE 11 15 6 8 1020.7 1020.8 0.0
27/09:30am 12.5 10.0 9.7 83 1.4 NNE 13 17 7 9 1020.7 1020.8 0.0
27/09:00am 10.4 9.6 8.3 87 1.0 NW 2 6 1 3 1020.8 1020.9 0.0
27/08:30am 11.6 8.8 8.5 81 1.5 NNE 13 15 7 8 1020.9 1021.0 0.0

Other Formats:

Comma delimited format used in spreadsheet applications
http://www.bom.gov.au/fwo/IDV60801/IDV60801.95890.axf

JavaScript Object Notation format (JSON) in row-major order
http://www.bom.gov.au/fwo/IDV60801/IDV60801.95890.json